sensor_id;sensor_type;location;lat;lon;timestamp;P1;durP1;ratioP1;P2;durP2;ratioP2
7324;SDS011;3703;48.016;7.802;2022-11-13T00:02:13;8.53;;;5.53;;
7324;SDS011;3703;48.016;7.802;2022-11-13T00:05:01;8.53;;;5.73;;
7324;SDS011;3703;48.016;7.802;2022-11-13T00:07:49;8.20;;;5.27;;
7324;SDS011;3703;48.016;7.802;2022-11-13T00:10:36;9.63;;;6.13;;
7324;SDS011;3703;48.016;7.802;2022-11-13T00:13:25;9.90;;;5.47;;
7324;SDS011;3703;48.016;7.802;2022-11-13T00:16:14;8.60;;;6.20;;
7324;SDS011;3703;48.016;7.802;2022-11-13T00:19:04;9.67;;;6.07;;
7324;SDS011;3703;48.016;7.802;2022-11-13T00:21:51;10.20;;;5.90;;
7324;SDS011;3703;48.016;7.802;2022-11-13T00:24:39;9.73;;;5.43;;
7324;SDS011;3703;48.016;7.802;2022-11-13T00:27:28;8.80;;;5.60;;
7324;SDS011;3703;48.016;7.802;2022-11-13T00:30:18;10.40;;;5.53;;
7324;SDS011;3703;48.016;7.802;2022-11-13T00:33:07;8.53;;;6.00;;
7324;SDS011;3703;48.016;7.802;2022-11-13T00:36:00;8.43;;;5.43;;
7324;SDS011;3703;48.016;7.802;2022-11-13T00:38:48;8.50;;;5.80;;
7324;SDS011;3703;48.016;7.802;2022-11-13T00:41:37;7.07;;;5.37;;
7324;SDS011;3703;48.016;7.802;2022-11-13T00:44:25;8.00;;;4.57;;
7324;SDS011;3703;48.016;7.802;2022-11-13T00:47:13;6.87;;;5.17;;
7324;SDS011;3703;48.016;7.802;2022-11-13T00:50:01;8.37;;;5.30;;
7324;SDS011;3703;48.016;7.802;2022-11-13T00:52:49;10.97;;;5.20;;
7324;SDS011;3703;48.016;7.802;2022-11-13T00:55:37;9.13;;;6.10;;
7324;SDS011;3703;48.016;7.802;2022-11-13T00:58:24;7.47;;;4.60;;
7324;SDS011;3703;48.016;7.802;2022-11-13T01:01:13;6.27;;;4.77;;
7324;SDS011;3703;48.016;7.802;2022-11-13T01:04:04;6.77;;;4.40;;
7324;SDS011;3703;48.016;7.802;2022-11-13T01:06:52;7.27;;;4.50;;
7324;SDS011;3703;48.016;7.802;2022-11-13T01:09:40;6.30;;;4.23;;
7324;SDS011;3703;48.016;7.802;2022-11-13T01:12:28;7.20;;;4.47;;
7324;SDS011;3703;48.016;7.802;2022-11-13T01:15:16;7.50;;;4.40;;
7324;SDS011;3703;48.016;7.802;2022-11-13T01:18:04;6.90;;;4.60;;
7324;SDS011;3703;48.016;7.802;2022-11-13T01:21:00;6.63;;;5.03;;
7324;SDS011;3703;48.016;7.802;2022-11-13T01:23:49;7.67;;;4.87;;
7324;SDS011;3703;48.016;7.802;2022-11-13T01:26:39;7.00;;;5.30;;
7324;SDS011;3703;48.016;7.802;2022-11-13T01:29:26;6.90;;;4.33;;
7324;SDS011;3703;48.016;7.802;2022-11-13T01:32:14;6.90;;;5.03;;
7324;SDS011;3703;48.016;7.802;2022-11-13T01:35:02;6.53;;;4.80;;
7324;SDS011;3703;48.016;7.802;2022-11-13T01:37:51;7.10;;;4.80;;
7324;SDS011;3703;48.016;7.802;2022-11-13T01:40:43;6.67;;;5.20;;
7324;SDS011;3703;48.016;7.802;2022-11-13T01:43:31;5.80;;;4.50;;
7324;SDS011;3703;48.016;7.802;2022-11-13T01:46:24;5.73;;;4.00;;
7324;SDS011;3703;48.016;7.802;2022-11-13T01:49:17;6.33;;;4.30;;
7324;SDS011;3703;48.016;7.802;2022-11-13T01:52:13;8.33;;;4.07;;
7324;SDS011;3703;48.016;7.802;2022-11-13T01:55:06;7.47;;;4.33;;
7324;SDS011;3703;48.016;7.802;2022-11-13T01:57:58;6.93;;;4.27;;
7324;SDS011;3703;48.016;7.802;2022-11-13T02:00:48;6.70;;;4.33;;
7324;SDS011;3703;48.016;7.802;2022-11-13T02:03:35;5.37;;;3.90;;
7324;SDS011;3703;48.016;7.802;2022-11-13T02:06:23;6.57;;;3.60;;
7324;SDS011;3703;48.016;7.802;2022-11-13T02:09:14;5.63;;;3.47;;
7324;SDS011;3703;48.016;7.802;2022-11-13T02:12:06;5.57;;;3.90;;
7324;SDS011;3703;48.016;7.802;2022-11-13T02:14:56;6.17;;;3.50;;
7324;SDS011;3703;48.016;7.802;2022-11-13T02:17:47;6.93;;;3.90;;
7324;SDS011;3703;48.016;7.802;2022-11-13T02:20:39;5.63;;;3.57;;
7324;SDS011;3703;48.016;7.802;2022-11-13T02:23:39;6.00;;;3.70;;
7324;SDS011;3703;48.016;7.802;2022-11-13T02:26:35;8.00;;;3.73;;
7324;SDS011;3703;48.016;7.802;2022-11-13T02:29:23;4.93;;;4.10;;
7324;SDS011;3703;48.016;7.802;2022-11-13T02:32:11;5.67;;;3.63;;
7324;SDS011;3703;48.016;7.802;2022-11-13T02:34:59;5.50;;;3.60;;
7324;SDS011;3703;48.016;7.802;2022-11-13T02:37:46;4.53;;;3.47;;
7324;SDS011;3703;48.016;7.802;2022-11-13T02:40:34;5.63;;;3.83;;
7324;SDS011;3703;48.016;7.802;2022-11-13T02:43:25;4.17;;;3.37;;
7324;SDS011;3703;48.016;7.802;2022-11-13T02:46:12;4.77;;;3.43;;
7324;SDS011;3703;48.016;7.802;2022-11-13T02:49:00;4.57;;;3.37;;
7324;SDS011;3703;48.016;7.802;2022-11-13T02:51:47;5.00;;;3.33;;
7324;SDS011;3703;48.016;7.802;2022-11-13T02:54:35;5.50;;;3.50;;
7324;SDS011;3703;48.016;7.802;2022-11-13T02:57:23;4.07;;;3.10;;
7324;SDS011;3703;48.016;7.802;2022-11-13T03:00:12;4.10;;;3.10;;
7324;SDS011;3703;48.016;7.802;2022-11-13T03:03:01;5.00;;;3.20;;
7324;SDS011;3703;48.016;7.802;2022-11-13T03:05:48;5.30;;;3.40;;
7324;SDS011;3703;48.016;7.802;2022-11-13T03:08:36;4.83;;;3.30;;
7324;SDS011;3703;48.016;7.802;2022-11-13T03:11:24;6.13;;;3.20;;
7324;SDS011;3703;48.016;7.802;2022-11-13T03:14:11;3.93;;;2.83;;
7324;SDS011;3703;48.016;7.802;2022-11-13T03:17:00;4.43;;;3.23;;
7324;SDS011;3703;48.016;7.802;2022-11-13T03:19:49;4.73;;;3.00;;
7324;SDS011;3703;48.016;7.802;2022-11-13T03:22:36;4.97;;;3.07;;
7324;SDS011;3703;48.016;7.802;2022-11-13T03:25:24;4.27;;;3.13;;
7324;SDS011;3703;48.016;7.802;2022-11-13T03:28:12;4.30;;;3.27;;
7324;SDS011;3703;48.016;7.802;2022-11-13T03:30:59;3.43;;;2.97;;
7324;SDS011;3703;48.016;7.802;2022-11-13T03:33:50;4.17;;;2.83;;
7324;SDS011;3703;48.016;7.802;2022-11-13T03:36:38;8.03;;;3.07;;
7324;SDS011;3703;48.016;7.802;2022-11-13T03:39:26;6.47;;;3.57;;
7324;SDS011;3703;48.016;7.802;2022-11-13T03:42:14;6.77;;;3.17;;
7324;SDS011;3703;48.016;7.802;2022-11-13T03:45:01;4.07;;;2.60;;
7324;SDS011;3703;48.016;7.802;2022-11-13T03:47:50;4.00;;;2.90;;
7324;SDS011;3703;48.016;7.802;2022-11-13T03:50:40;4.60;;;2.97;;
7324;SDS011;3703;48.016;7.802;2022-11-13T03:53:29;4.67;;;3.27;;
7324;SDS011;3703;48.016;7.802;2022-11-13T03:56:17;4.47;;;3.20;;
7324;SDS011;3703;48.016;7.802;2022-11-13T03:59:04;4.83;;;3.27;;
7324;SDS011;3703;48.016;7.802;2022-11-13T04:01:52;4.63;;;3.07;;
7324;SDS011;3703;48.016;7.802;2022-11-13T04:04:39;4.23;;;3.20;;
7324;SDS011;3703;48.016;7.802;2022-11-13T04:07:28;4.57;;;2.80;;
7324;SDS011;3703;48.016;7.802;2022-11-13T04:10:16;4.00;;;3.00;;
7324;SDS011;3703;48.016;7.802;2022-11-13T04:13:04;4.20;;;2.63;;
7324;SDS011;3703;48.016;7.802;2022-11-13T04:15:52;4.07;;;3.10;;
7324;SDS011;3703;48.016;7.802;2022-11-13T04:18:39;3.87;;;3.07;;
7324;SDS011;3703;48.016;7.802;2022-11-13T04:21:27;3.57;;;2.77;;
7324;SDS011;3703;48.016;7.802;2022-11-13T04:24:16;3.43;;;2.63;;
7324;SDS011;3703;48.016;7.802;2022-11-13T04:27:03;5.07;;;3.23;;
7324;SDS011;3703;48.016;7.802;2022-11-13T04:29:51;5.50;;;2.87;;
7324;SDS011;3703;48.016;7.802;2022-11-13T04:32:38;3.83;;;3.00;;
7324;SDS011;3703;48.016;7.802;2022-11-13T04:35:26;5.03;;;3.10;;
7324;SDS011;3703;48.016;7.802;2022-11-13T04:38:14;5.03;;;3.97;;
7324;SDS011;3703;48.016;7.802;2022-11-13T04:41:03;3.97;;;3.57;;
7324;SDS011;3703;48.016;7.802;2022-11-13T04:44:08;4.00;;;3.00;;
7324;SDS011;3703;48.016;7.802;2022-11-13T04:46:56;4.03;;;2.97;;
7324;SDS011;3703;48.016;7.802;2022-11-13T04:49:44;4.57;;;3.10;;
7324;SDS011;3703;48.016;7.802;2022-11-13T04:52:31;3.97;;;2.73;;
7324;SDS011;3703;48.016;7.802;2022-11-13T04:55:19;5.60;;;2.87;;
7324;SDS011;3703;48.016;7.802;2022-11-13T04:58:08;4.10;;;2.87;;
7324;SDS011;3703;48.016;7.802;2022-11-13T05:00:56;4.57;;;3.10;;
7324;SDS011;3703;48.016;7.802;2022-11-13T05:03:43;4.23;;;2.93;;
7324;SDS011;3703;48.016;7.802;2022-11-13T05:06:31;3.60;;;2.60;;
7324;SDS011;3703;48.016;7.802;2022-11-13T05:09:19;4.10;;;2.63;;
7324;SDS011;3703;48.016;7.802;2022-11-13T05:12:07;4.47;;;2.70;;
7324;SDS011;3703;48.016;7.802;2022-11-13T05:14:56;3.77;;;2.40;;
7324;SDS011;3703;48.016;7.802;2022-11-13T05:17:43;3.63;;;2.80;;
7324;SDS011;3703;48.016;7.802;2022-11-13T05:20:34;3.43;;;2.70;;
7324;SDS011;3703;48.016;7.802;2022-11-13T05:23:21;4.27;;;2.97;;
7324;SDS011;3703;48.016;7.802;2022-11-13T05:26:10;3.37;;;2.50;;
7324;SDS011;3703;48.016;7.802;2022-11-13T05:28:59;3.70;;;2.50;;
7324;SDS011;3703;48.016;7.802;2022-11-13T05:31:48;4.13;;;3.10;;
7324;SDS011;3703;48.016;7.802;2022-11-13T05:34:36;3.47;;;2.67;;
7324;SDS011;3703;48.016;7.802;2022-11-13T05:37:23;4.73;;;2.73;;
7324;SDS011;3703;48.016;7.802;2022-11-13T05:40:11;4.27;;;2.97;;
7324;SDS011;3703;48.016;7.802;2022-11-13T05:42:59;4.40;;;2.60;;
7324;SDS011;3703;48.016;7.802;2022-11-13T05:45:47;3.77;;;2.80;;
7324;SDS011;3703;48.016;7.802;2022-11-13T05:48:36;3.43;;;2.57;;
7324;SDS011;3703;48.016;7.802;2022-11-13T05:51:25;3.30;;;2.33;;
7324;SDS011;3703;48.016;7.802;2022-11-13T05:54:15;3.07;;;2.50;;
7324;SDS011;3703;48.016;7.802;2022-11-13T05:57:02;5.47;;;2.80;;
7324;SDS011;3703;48.016;7.802;2022-11-13T05:59:50;3.10;;;2.80;;
7324;SDS011;3703;48.016;7.802;2022-11-13T06:02:38;4.00;;;3.03;;
7324;SDS011;3703;48.016;7.802;2022-11-13T06:05:27;3.57;;;2.90;;
7324;SDS011;3703;48.016;7.802;2022-11-13T06:08:15;4.80;;;2.97;;
7324;SDS011;3703;48.016;7.802;2022-11-13T06:11:03;2.53;;;2.33;;
7324;SDS011;3703;48.016;7.802;2022-11-13T06:13:53;3.83;;;2.97;;
7324;SDS011;3703;48.016;7.802;2022-11-13T06:16:42;4.10;;;3.20;;
7324;SDS011;3703;48.016;7.802;2022-11-13T06:19:29;2.73;;;2.40;;
7324;SDS011;3703;48.016;7.802;2022-11-13T06:22:19;3.33;;;2.50;;
7324;SDS011;3703;48.016;7.802;2022-11-13T06:25:06;4.13;;;2.90;;
7324;SDS011;3703;48.016;7.802;2022-11-13T06:27:54;5.10;;;2.57;;
7324;SDS011;3703;48.016;7.802;2022-11-13T06:30:42;3.10;;;2.47;;
7324;SDS011;3703;48.016;7.802;2022-11-13T06:33:30;3.47;;;2.83;;
7324;SDS011;3703;48.016;7.802;2022-11-13T06:36:19;4.13;;;2.80;;
7324;SDS011;3703;48.016;7.802;2022-11-13T06:39:10;3.33;;;2.50;;
7324;SDS011;3703;48.016;7.802;2022-11-13T06:41:58;4.47;;;3.20;;
7324;SDS011;3703;48.016;7.802;2022-11-13T06:44:46;5.13;;;3.47;;
7324;SDS011;3703;48.016;7.802;2022-11-13T06:47:34;5.73;;;3.30;;
7324;SDS011;3703;48.016;7.802;2022-11-13T06:50:21;4.77;;;2.93;;
7324;SDS011;3703;48.016;7.802;2022-11-13T06:53:09;5.07;;;3.40;;
7324;SDS011;3703;48.016;7.802;2022-11-13T06:55:59;3.97;;;2.90;;
7324;SDS011;3703;48.016;7.802;2022-11-13T06:58:47;4.23;;;2.80;;
7324;SDS011;3703;48.016;7.802;2022-11-13T07:01:35;3.97;;;2.70;;
7324;SDS011;3703;48.016;7.802;2022-11-13T07:04:23;4.93;;;2.73;;
7324;SDS011;3703;48.016;7.802;2022-11-13T07:07:10;3.67;;;2.97;;
7324;SDS011;3703;48.016;7.802;2022-11-13T07:09:58;6.23;;;3.87;;
7324;SDS011;3703;48.016;7.802;2022-11-13T07:12:47;5.37;;;3.30;;
7324;SDS011;3703;48.016;7.802;2022-11-13T07:15:35;3.53;;;2.90;;
7324;SDS011;3703;48.016;7.802;2022-11-13T07:18:24;5.40;;;4.00;;
7324;SDS011;3703;48.016;7.802;2022-11-13T07:21:12;4.57;;;3.43;;
7324;SDS011;3703;48.016;7.802;2022-11-13T07:24:00;4.83;;;3.13;;
7324;SDS011;3703;48.016;7.802;2022-11-13T07:26:47;4.63;;;3.20;;
7324;SDS011;3703;48.016;7.802;2022-11-13T07:29:36;4.33;;;3.00;;
7324;SDS011;3703;48.016;7.802;2022-11-13T07:32:24;4.47;;;3.37;;
7324;SDS011;3703;48.016;7.802;2022-11-13T07:35:12;4.73;;;3.47;;
7324;SDS011;3703;48.016;7.802;2022-11-13T07:38:01;5.37;;;3.77;;
7324;SDS011;3703;48.016;7.802;2022-11-13T07:40:49;6.27;;;4.10;;
7324;SDS011;3703;48.016;7.802;2022-11-13T07:43:37;5.67;;;3.70;;
7324;SDS011;3703;48.016;7.802;2022-11-13T07:46:26;7.13;;;4.53;;
7324;SDS011;3703;48.016;7.802;2022-11-13T07:49:14;7.00;;;4.10;;
7324;SDS011;3703;48.016;7.802;2022-11-13T07:52:01;6.67;;;3.90;;
7324;SDS011;3703;48.016;7.802;2022-11-13T07:54:49;5.20;;;4.23;;
7324;SDS011;3703;48.016;7.802;2022-11-13T07:57:37;4.67;;;3.47;;
7324;SDS011;3703;48.016;7.802;2022-11-13T08:00:25;5.40;;;3.90;;
7324;SDS011;3703;48.016;7.802;2022-11-13T08:03:15;5.23;;;3.30;;
7324;SDS011;3703;48.016;7.802;2022-11-13T08:06:04;6.37;;;4.17;;
7324;SDS011;3703;48.016;7.802;2022-11-13T08:08:53;5.13;;;3.90;;
7324;SDS011;3703;48.016;7.802;2022-11-13T08:11:40;6.33;;;3.87;;
7324;SDS011;3703;48.016;7.802;2022-11-13T08:14:28;6.87;;;3.87;;
7324;SDS011;3703;48.016;7.802;2022-11-13T08:17:16;7.80;;;3.93;;
7324;SDS011;3703;48.016;7.802;2022-11-13T08:20:06;5.90;;;4.13;;
7324;SDS011;3703;48.016;7.802;2022-11-13T08:22:55;4.53;;;3.40;;
7324;SDS011;3703;48.016;7.802;2022-11-13T08:25:43;5.37;;;4.10;;
7324;SDS011;3703;48.016;7.802;2022-11-13T08:28:31;5.97;;;4.30;;
7324;SDS011;3703;48.016;7.802;2022-11-13T08:31:20;4.93;;;4.30;;
7324;SDS011;3703;48.016;7.802;2022-11-13T08:34:08;6.87;;;4.73;;
7324;SDS011;3703;48.016;7.802;2022-11-13T08:36:57;5.83;;;4.60;;
7324;SDS011;3703;48.016;7.802;2022-11-13T08:39:45;5.53;;;4.03;;
7324;SDS011;3703;48.016;7.802;2022-11-13T08:42:32;5.23;;;3.50;;
7324;SDS011;3703;48.016;7.802;2022-11-13T08:45:20;6.40;;;4.03;;
7324;SDS011;3703;48.016;7.802;2022-11-13T08:48:08;5.60;;;3.83;;
7324;SDS011;3703;48.016;7.802;2022-11-13T08:50:56;4.30;;;3.03;;
7324;SDS011;3703;48.016;7.802;2022-11-13T08:53:45;4.60;;;3.67;;
7324;SDS011;3703;48.016;7.802;2022-11-13T08:56:33;6.53;;;3.60;;
7324;SDS011;3703;48.016;7.802;2022-11-13T08:59:20;5.23;;;3.90;;
7324;SDS011;3703;48.016;7.802;2022-11-13T09:02:09;4.13;;;3.53;;
7324;SDS011;3703;48.016;7.802;2022-11-13T09:05:00;4.23;;;3.23;;
7324;SDS011;3703;48.016;7.802;2022-11-13T09:07:48;6.10;;;4.70;;
7324;SDS011;3703;48.016;7.802;2022-11-13T09:10:38;11.93;;;4.97;;
7324;SDS011;3703;48.016;7.802;2022-11-13T09:13:25;7.30;;;5.10;;
7324;SDS011;3703;48.016;7.802;2022-11-13T09:16:13;6.10;;;4.63;;
7324;SDS011;3703;48.016;7.802;2022-11-13T09:19:01;4.87;;;3.90;;
7324;SDS011;3703;48.016;7.802;2022-11-13T09:21:50;4.83;;;3.60;;
7324;SDS011;3703;48.016;7.802;2022-11-13T09:24:38;5.23;;;3.77;;
7324;SDS011;3703;48.016;7.802;2022-11-13T09:27:27;6.57;;;4.03;;
7324;SDS011;3703;48.016;7.802;2022-11-13T09:30:15;4.50;;;3.47;;
7324;SDS011;3703;48.016;7.802;2022-11-13T09:33:03;6.50;;;4.53;;
7324;SDS011;3703;48.016;7.802;2022-11-13T09:35:51;6.17;;;4.97;;
7324;SDS011;3703;48.016;7.802;2022-11-13T09:38:38;9.67;;;8.37;;
7324;SDS011;3703;48.016;7.802;2022-11-13T09:41:28;6.77;;;6.03;;
7324;SDS011;3703;48.016;7.802;2022-11-13T09:44:21;7.73;;;5.90;;
7324;SDS011;3703;48.016;7.802;2022-11-13T09:47:22;13.13;;;11.73;;
7324;SDS011;3703;48.016;7.802;2022-11-13T09:50:16;9.23;;;8.10;;
7324;SDS011;3703;48.016;7.802;2022-11-13T09:53:08;5.80;;;4.50;;
7324;SDS011;3703;48.016;7.802;2022-11-13T09:56:00;5.33;;;3.90;;
7324;SDS011;3703;48.016;7.802;2022-11-13T09:59:06;5.37;;;4.50;;
7324;SDS011;3703;48.016;7.802;2022-11-13T10:02:10;5.03;;;3.83;;
7324;SDS011;3703;48.016;7.802;2022-11-13T10:05:09;6.17;;;3.93;;
7324;SDS011;3703;48.016;7.802;2022-11-13T10:08:10;6.80;;;5.27;;
7324;SDS011;3703;48.016;7.802;2022-11-13T10:11:05;5.50;;;4.00;;
7324;SDS011;3703;48.016;7.802;2022-11-13T10:14:02;5.87;;;3.77;;
7324;SDS011;3703;48.016;7.802;2022-11-13T10:17:05;5.43;;;3.93;;
7324;SDS011;3703;48.016;7.802;2022-11-13T10:20:01;5.77;;;4.00;;
7324;SDS011;3703;48.016;7.802;2022-11-13T10:22:52;6.70;;;4.00;;
7324;SDS011;3703;48.016;7.802;2022-11-13T10:25:44;6.03;;;3.80;;
7324;SDS011;3703;48.016;7.802;2022-11-13T10:28:35;4.17;;;3.10;;
7324;SDS011;3703;48.016;7.802;2022-11-13T10:31:24;5.77;;;3.97;;
7324;SDS011;3703;48.016;7.802;2022-11-13T10:34:14;5.33;;;3.40;;
7324;SDS011;3703;48.016;7.802;2022-11-13T10:37:09;5.87;;;3.93;;
7324;SDS011;3703;48.016;7.802;2022-11-13T10:40:23;6.13;;;4.40;;
7324;SDS011;3703;48.016;7.802;2022-11-13T10:43:13;5.43;;;3.77;;
7324;SDS011;3703;48.016;7.802;2022-11-13T10:46:03;5.63;;;4.13;;
7324;SDS011;3703;48.016;7.802;2022-11-13T10:48:51;7.33;;;5.10;;
7324;SDS011;3703;48.016;7.802;2022-11-13T10:51:40;5.83;;;3.87;;
7324;SDS011;3703;48.016;7.802;2022-11-13T10:54:28;6.23;;;4.00;;
7324;SDS011;3703;48.016;7.802;2022-11-13T10:57:22;5.40;;;3.97;;
7324;SDS011;3703;48.016;7.802;2022-11-13T11:00:18;5.70;;;4.50;;
7324;SDS011;3703;48.016;7.802;2022-11-13T11:03:13;6.23;;;3.90;;
7324;SDS011;3703;48.016;7.802;2022-11-13T11:06:03;5.70;;;4.23;;
7324;SDS011;3703;48.016;7.802;2022-11-13T11:08:52;6.57;;;4.40;;
7324;SDS011;3703;48.016;7.802;2022-11-13T11:11:58;5.80;;;3.80;;
7324;SDS011;3703;48.016;7.802;2022-11-13T11:15:08;6.20;;;4.17;;
7324;SDS011;3703;48.016;7.802;2022-11-13T11:18:12;8.20;;;4.33;;
7324;SDS011;3703;48.016;7.802;2022-11-13T11:21:11;5.87;;;3.97;;
7324;SDS011;3703;48.016;7.802;2022-11-13T11:24:06;7.03;;;4.70;;
7324;SDS011;3703;48.016;7.802;2022-11-13T11:27:02;7.40;;;4.80;;
7324;SDS011;3703;48.016;7.802;2022-11-13T11:29:58;6.87;;;4.83;;
7324;SDS011;3703;48.016;7.802;2022-11-13T11:32:59;5.37;;;3.73;;
7324;SDS011;3703;48.016;7.802;2022-11-13T11:35:58;7.33;;;4.37;;
7324;SDS011;3703;48.016;7.802;2022-11-13T11:38:54;8.43;;;4.87;;
7324;SDS011;3703;48.016;7.802;2022-11-13T11:41:54;7.13;;;5.13;;
7324;SDS011;3703;48.016;7.802;2022-11-13T11:44:59;5.57;;;4.00;;
7324;SDS011;3703;48.016;7.802;2022-11-13T11:47:56;7.27;;;4.77;;
7324;SDS011;3703;48.016;7.802;2022-11-13T11:50:46;5.23;;;3.90;;
7324;SDS011;3703;48.016;7.802;2022-11-13T11:53:43;7.80;;;5.17;;
7324;SDS011;3703;48.016;7.802;2022-11-13T11:56:44;6.30;;;4.60;;
7324;SDS011;3703;48.016;7.802;2022-11-13T11:59:45;5.70;;;4.10;;
7324;SDS011;3703;48.016;7.802;2022-11-13T12:02:54;8.00;;;6.20;;
7324;SDS011;3703;48.016;7.802;2022-11-13T12:06:24;8.77;;;5.70;;
7324;SDS011;3703;48.016;7.802;2022-11-13T12:09:23;5.93;;;4.37;;
7324;SDS011;3703;48.016;7.802;2022-11-13T12:12:16;8.57;;;5.50;;
7324;SDS011;3703;48.016;7.802;2022-11-13T12:15:17;6.40;;;4.87;;
7324;SDS011;3703;48.016;7.802;2022-11-13T12:18:13;6.87;;;4.30;;
7324;SDS011;3703;48.016;7.802;2022-11-13T12:21:21;6.10;;;4.57;;
7324;SDS011;3703;48.016;7.802;2022-11-13T12:24:19;11.20;;;7.17;;
7324;SDS011;3703;48.016;7.802;2022-11-13T12:27:29;8.63;;;6.57;;
7324;SDS011;3703;48.016;7.802;2022-11-13T12:30:27;9.10;;;5.80;;
7324;SDS011;3703;48.016;7.802;2022-11-13T12:33:27;8.20;;;5.33;;
7324;SDS011;3703;48.016;7.802;2022-11-13T12:36:28;7.63;;;5.40;;
7324;SDS011;3703;48.016;7.802;2022-11-13T12:39:26;8.30;;;6.03;;
7324;SDS011;3703;48.016;7.802;2022-11-13T12:42:27;6.93;;;4.87;;
7324;SDS011;3703;48.016;7.802;2022-11-13T12:45:22;7.87;;;5.40;;
7324;SDS011;3703;48.016;7.802;2022-11-13T12:48:37;7.90;;;5.40;;
7324;SDS011;3703;48.016;7.802;2022-11-13T12:51:36;10.23;;;6.67;;
7324;SDS011;3703;48.016;7.802;2022-11-13T12:54:26;10.70;;;7.30;;
7324;SDS011;3703;48.016;7.802;2022-11-13T12:57:16;6.53;;;5.00;;
7324;SDS011;3703;48.016;7.802;2022-11-13T13:00:18;8.20;;;5.87;;
7324;SDS011;3703;48.016;7.802;2022-11-13T13:03:25;14.67;;;7.67;;
7324;SDS011;3703;48.016;7.802;2022-11-13T13:06:35;32.47;;;12.97;;
7324;SDS011;3703;48.016;7.802;2022-11-13T13:09:42;31.50;;;13.93;;
7324;SDS011;3703;48.016;7.802;2022-11-13T13:12:46;8.87;;;6.13;;
7324;SDS011;3703;48.016;7.802;2022-11-13T13:15:42;49.67;;;22.57;;
7324;SDS011;3703;48.016;7.802;2022-11-13T13:18:40;11.17;;;6.73;;
7324;SDS011;3703;48.016;7.802;2022-11-13T13:21:37;15.37;;;8.43;;
7324;SDS011;3703;48.016;7.802;2022-11-13T13:24:28;8.80;;;4.83;;
7324;SDS011;3703;48.016;7.802;2022-11-13T13:27:21;5.63;;;4.20;;
7324;SDS011;3703;48.016;7.802;2022-11-13T13:30:15;5.83;;;4.57;;
7324;SDS011;3703;48.016;7.802;2022-11-13T13:33:13;7.03;;;5.00;;
7324;SDS011;3703;48.016;7.802;2022-11-13T13:36:11;7.53;;;5.23;;
7324;SDS011;3703;48.016;7.802;2022-11-13T13:39:14;12.57;;;6.83;;
7324;SDS011;3703;48.016;7.802;2022-11-13T13:42:17;21.63;;;11.70;;
7324;SDS011;3703;48.016;7.802;2022-11-13T13:45:30;11.20;;;6.43;;
7324;SDS011;3703;48.016;7.802;2022-11-13T13:48:28;10.40;;;7.03;;
7324;SDS011;3703;48.016;7.802;2022-11-13T13:51:20;5.57;;;4.37;;
7324;SDS011;3703;48.016;7.802;2022-11-13T13:54:14;5.33;;;4.30;;
7324;SDS011;3703;48.016;7.802;2022-11-13T13:57:08;5.77;;;4.20;;
7324;SDS011;3703;48.016;7.802;2022-11-13T13:59:59;16.80;;;10.73;;
7324;SDS011;3703;48.016;7.802;2022-11-13T14:02:48;10.80;;;7.97;;
7324;SDS011;3703;48.016;7.802;2022-11-13T14:05:37;6.43;;;5.37;;
7324;SDS011;3703;48.016;7.802;2022-11-13T14:08:26;6.43;;;4.97;;
7324;SDS011;3703;48.016;7.802;2022-11-13T14:11:14;7.47;;;4.50;;
7324;SDS011;3703;48.016;7.802;2022-11-13T14:14:06;5.13;;;3.87;;
7324;SDS011;3703;48.016;7.802;2022-11-13T14:16:55;5.00;;;4.07;;
7324;SDS011;3703;48.016;7.802;2022-11-13T14:19:47;7.07;;;4.40;;
7324;SDS011;3703;48.016;7.802;2022-11-13T14:22:36;8.13;;;4.20;;
7324;SDS011;3703;48.016;7.802;2022-11-13T14:25:26;7.67;;;3.80;;
7324;SDS011;3703;48.016;7.802;2022-11-13T14:28:15;5.60;;;4.00;;
7324;SDS011;3703;48.016;7.802;2022-11-13T14:31:05;5.40;;;3.67;;
7324;SDS011;3703;48.016;7.802;2022-11-13T14:33:54;7.30;;;4.60;;
7324;SDS011;3703;48.016;7.802;2022-11-13T14:36:46;6.73;;;4.60;;
7324;SDS011;3703;48.016;7.802;2022-11-13T14:39:33;6.80;;;4.57;;
7324;SDS011;3703;48.016;7.802;2022-11-13T14:42:24;6.83;;;4.83;;
7324;SDS011;3703;48.016;7.802;2022-11-13T14:45:15;7.17;;;4.63;;
7324;SDS011;3703;48.016;7.802;2022-11-13T14:48:16;8.60;;;5.10;;
7324;SDS011;3703;48.016;7.802;2022-11-13T14:51:06;8.63;;;5.50;;
7324;SDS011;3703;48.016;7.802;2022-11-13T14:54:26;10.50;;;6.40;;
7324;SDS011;3703;48.016;7.802;2022-11-13T14:57:16;9.70;;;6.20;;
7324;SDS011;3703;48.016;7.802;2022-11-13T15:00:10;7.73;;;5.10;;
7324;SDS011;3703;48.016;7.802;2022-11-13T15:02:59;7.07;;;5.50;;
7324;SDS011;3703;48.016;7.802;2022-11-13T15:05:48;7.03;;;5.00;;
7324;SDS011;3703;48.016;7.802;2022-11-13T15:08:36;6.60;;;4.73;;
7324;SDS011;3703;48.016;7.802;2022-11-13T15:11:24;6.63;;;4.77;;
7324;SDS011;3703;48.016;7.802;2022-11-13T15:14:13;6.83;;;5.47;;
7324;SDS011;3703;48.016;7.802;2022-11-13T15:17:04;7.80;;;5.67;;
7324;SDS011;3703;48.016;7.802;2022-11-13T15:19:54;10.50;;;8.30;;
7324;SDS011;3703;48.016;7.802;2022-11-13T15:22:41;9.00;;;6.70;;
7324;SDS011;3703;48.016;7.802;2022-11-13T15:25:29;8.50;;;6.47;;
7324;SDS011;3703;48.016;7.802;2022-11-13T15:28:17;8.43;;;5.83;;
7324;SDS011;3703;48.016;7.802;2022-11-13T15:31:05;7.03;;;5.00;;
7324;SDS011;3703;48.016;7.802;2022-11-13T15:34:07;7.87;;;5.03;;
7324;SDS011;3703;48.016;7.802;2022-11-13T15:36:56;8.47;;;5.73;;
7324;SDS011;3703;48.016;7.802;2022-11-13T15:39:43;6.43;;;4.60;;
7324;SDS011;3703;48.016;7.802;2022-11-13T15:42:32;8.23;;;5.47;;
7324;SDS011;3703;48.016;7.802;2022-11-13T15:45:21;8.53;;;5.27;;
7324;SDS011;3703;48.016;7.802;2022-11-13T15:48:10;7.07;;;5.47;;
7324;SDS011;3703;48.016;7.802;2022-11-13T15:51:00;8.27;;;5.00;;
7324;SDS011;3703;48.016;7.802;2022-11-13T15:53:48;7.87;;;5.50;;
7324;SDS011;3703;48.016;7.802;2022-11-13T15:56:40;8.30;;;5.67;;
7324;SDS011;3703;48.016;7.802;2022-11-13T15:59:28;13.70;;;7.83;;
7324;SDS011;3703;48.016;7.802;2022-11-13T16:02:16;8.77;;;6.43;;
7324;SDS011;3703;48.016;7.802;2022-11-13T16:05:04;7.97;;;6.10;;
7324;SDS011;3703;48.016;7.802;2022-11-13T16:07:53;7.30;;;5.30;;
7324;SDS011;3703;48.016;7.802;2022-11-13T16:10:42;6.90;;;4.90;;
7324;SDS011;3703;48.016;7.802;2022-11-13T16:13:29;6.83;;;4.67;;
7324;SDS011;3703;48.016;7.802;2022-11-13T16:16:18;6.03;;;4.70;;
7324;SDS011;3703;48.016;7.802;2022-11-13T16:19:09;6.53;;;4.80;;
7324;SDS011;3703;48.016;7.802;2022-11-13T16:21:59;7.30;;;5.00;;
7324;SDS011;3703;48.016;7.802;2022-11-13T16:24:49;7.07;;;4.63;;
7324;SDS011;3703;48.016;7.802;2022-11-13T16:27:37;7.93;;;6.03;;
7324;SDS011;3703;48.016;7.802;2022-11-13T16:30:25;9.67;;;6.17;;
7324;SDS011;3703;48.016;7.802;2022-11-13T16:33:12;7.67;;;5.10;;
7324;SDS011;3703;48.016;7.802;2022-11-13T16:36:00;7.93;;;5.23;;
7324;SDS011;3703;48.016;7.802;2022-11-13T16:38:48;6.40;;;5.00;;
7324;SDS011;3703;48.016;7.802;2022-11-13T16:41:37;9.43;;;5.23;;
7324;SDS011;3703;48.016;7.802;2022-11-13T16:44:24;8.17;;;5.30;;
7324;SDS011;3703;48.016;7.802;2022-11-13T16:47:24;7.23;;;4.73;;
7324;SDS011;3703;48.016;7.802;2022-11-13T16:50:13;7.60;;;5.07;;
7324;SDS011;3703;48.016;7.802;2022-11-13T16:53:03;8.27;;;5.33;;
7324;SDS011;3703;48.016;7.802;2022-11-13T16:55:50;7.97;;;5.20;;
7324;SDS011;3703;48.016;7.802;2022-11-13T16:58:39;7.77;;;5.97;;
7324;SDS011;3703;48.016;7.802;2022-11-13T17:01:27;8.30;;;5.53;;
7324;SDS011;3703;48.016;7.802;2022-11-13T17:04:15;7.57;;;5.33;;
7324;SDS011;3703;48.016;7.802;2022-11-13T17:07:02;8.33;;;6.10;;
7324;SDS011;3703;48.016;7.802;2022-11-13T17:09:50;8.83;;;5.50;;
7324;SDS011;3703;48.016;7.802;2022-11-13T17:12:38;9.00;;;5.70;;
7324;SDS011;3703;48.016;7.802;2022-11-13T17:15:27;9.90;;;6.43;;
7324;SDS011;3703;48.016;7.802;2022-11-13T17:18:14;10.80;;;6.63;;
7324;SDS011;3703;48.016;7.802;2022-11-13T17:21:02;13.03;;;6.63;;
7324;SDS011;3703;48.016;7.802;2022-11-13T17:23:52;9.53;;;5.17;;
7324;SDS011;3703;48.016;7.802;2022-11-13T17:26:41;7.23;;;5.13;;
7324;SDS011;3703;48.016;7.802;2022-11-13T17:29:29;6.37;;;4.73;;
7324;SDS011;3703;48.016;7.802;2022-11-13T17:32:18;7.30;;;5.17;;
7324;SDS011;3703;48.016;7.802;2022-11-13T17:35:06;7.73;;;5.23;;
7324;SDS011;3703;48.016;7.802;2022-11-13T17:37:55;7.07;;;4.90;;
7324;SDS011;3703;48.016;7.802;2022-11-13T17:40:43;6.53;;;4.63;;
7324;SDS011;3703;48.016;7.802;2022-11-13T17:43:32;7.73;;;4.87;;